createdAt,value
2023-01-20T00:01:50.753Z,15.55
2023-01-20T00:04:21.131Z,16.85
2023-01-20T00:06:48.852Z,15.23
2023-01-20T00:09:17.188Z,15.68
2023-01-20T00:11:44.760Z,17.63
2023-01-20T00:14:12.376Z,15.30
2023-01-20T00:16:39.890Z,15.48
2023-01-20T00:19:07.377Z,14.23
2023-01-20T00:21:38.075Z,17.83
2023-01-20T00:24:05.779Z,15.18
2023-01-20T00:26:33.282Z,15.73
2023-01-20T00:29:00.748Z,17.60
2023-01-20T00:31:29.326Z,14.15
2023-01-20T00:33:58.795Z,14.95
2023-01-20T00:36:27.655Z,14.25
2023-01-20T00:38:55.482Z,15.38
2023-01-20T00:41:22.922Z,14.75
2023-01-20T00:43:50.589Z,15.05
2023-01-20T00:46:18.282Z,14.13
2023-01-20T00:48:45.970Z,14.77
2023-01-20T00:51:13.508Z,14.68
2023-01-20T00:53:41.084Z,16.70
2023-01-20T00:56:09.081Z,14.63
2023-01-20T00:58:36.549Z,13.43
2023-01-20T01:01:04.143Z,15.85
2023-01-20T01:03:31.627Z,14.32
2023-01-20T01:06:09.637Z,13.25
2023-01-20T01:08:37.237Z,13.50
2023-01-20T01:11:05.364Z,14.27
2023-01-20T01:13:33.127Z,15.07
2023-01-20T01:16:00.667Z,16.52
2023-01-20T01:18:28.209Z,12.77
2023-01-20T01:20:55.688Z,13.88
2023-01-20T01:23:23.341Z,14.30
2023-01-20T01:25:50.799Z,13.85
2023-01-20T01:28:18.310Z,13.75
2023-01-20T01:30:45.967Z,13.50
2023-01-20T01:33:13.414Z,13.77
2023-01-20T01:35:40.875Z,14.32
2023-01-20T01:38:08.572Z,15.85
2023-01-20T01:40:36.233Z,15.60
2023-01-20T01:43:03.697Z,13.80
2023-01-20T01:45:31.377Z,14.65
2023-01-20T01:48:25.086Z,16.38
2023-01-20T01:50:54.777Z,15.88
2023-01-20T01:53:23.034Z,14.98
2023-01-20T01:55:54.335Z,15.48
2023-01-20T01:58:24.122Z,15.07
2023-01-20T02:00:51.930Z,13.43
2023-01-20T02:03:19.777Z,11.93
2023-01-20T02:05:49.200Z,12.57
2023-01-20T02:08:16.729Z,12.30
2023-01-20T02:10:44.197Z,12.23
2023-01-20T02:13:11.879Z,12.57
2023-01-20T02:16:01.950Z,12.85
2023-01-20T02:18:58.604Z,12.77
2023-01-20T02:21:35.255Z,12.40
2023-01-20T02:24:20.936Z,12.25
2023-01-20T02:26:48.418Z,12.68
2023-01-20T02:29:35.029Z,13.15
2023-01-20T02:32:19.076Z,13.60
2023-01-20T02:34:46.521Z,13.30
2023-01-20T02:37:19.374Z,13.75
2023-01-20T02:39:53.205Z,14.48
2023-01-20T02:42:24.475Z,14.73
2023-01-20T02:47:26.524Z,12.50
2023-01-20T02:49:56.609Z,15.15
2023-01-20T02:52:28.441Z,13.35
2023-01-20T02:54:57.740Z,13.70
2023-01-20T02:57:54.400Z,14.90
2023-01-20T03:00:32.940Z,15.43
2023-01-20T03:03:01.842Z,15.38
2023-01-20T03:05:33.942Z,12.52
2023-01-20T03:08:03.164Z,14.02
2023-01-20T03:10:31.872Z,14.73
2023-01-20T03:13:02.359Z,13.90
2023-01-20T03:15:36.188Z,14.05
2023-01-20T03:18:03.708Z,14.60
2023-01-20T03:20:31.486Z,12.38
2023-01-20T03:22:59.185Z,14.10
2023-01-20T03:25:26.674Z,15.73
2023-01-20T03:27:54.172Z,14.48
2023-01-20T03:30:22.610Z,15.40
2023-01-20T03:32:50.810Z,15.82
2023-01-20T03:35:18.647Z,15.38
2023-01-20T03:37:46.606Z,15.32
2023-01-20T03:40:15.071Z,17.33
2023-01-20T03:42:46.063Z,13.40
2023-01-20T03:45:20.101Z,16.27
2023-01-20T03:47:47.621Z,15.48
2023-01-20T03:50:29.391Z,16.02
2023-01-20T03:53:20.140Z,14.55
2023-01-20T03:55:50.888Z,14.65
2023-01-20T03:58:20.952Z,13.93
2023-01-20T04:00:50.001Z,14.32
2023-01-20T04:03:20.040Z,12.13
2023-01-20T04:05:48.376Z,14.55
2023-01-20T04:08:17.962Z,14.88
2023-01-20T04:10:46.486Z,13.25
2023-01-20T04:13:14.517Z,14.07
2023-01-20T04:15:44.344Z,11.80
2023-01-20T04:18:16.310Z,16.05
2023-01-20T04:20:48.334Z,13.30
2023-01-20T04:23:25.412Z,13.57
2023-01-20T04:25:52.946Z,14.13
2023-01-20T04:28:20.432Z,16.83
2023-01-20T04:30:48.547Z,13.27
2023-01-20T04:33:16.043Z,13.68
2023-01-20T04:35:43.569Z,15.52
2023-01-20T04:38:10.983Z,15.00
2023-01-20T04:40:38.451Z,11.85
2023-01-20T04:43:06.008Z,13.63
2023-01-20T04:45:33.519Z,17.30
2023-01-20T04:48:00.990Z,15.25
2023-01-20T04:50:28.451Z,27.55
2023-01-20T04:52:56.120Z,15.20
2023-01-20T04:55:23.584Z,12.18
2023-01-20T04:57:51.189Z,15.48
2023-01-20T05:00:20.487Z,14.00
2023-01-20T05:02:48.047Z,13.05
2023-01-20T05:05:15.989Z,14.77
2023-01-20T05:07:43.739Z,20.73
2023-01-20T05:10:13.174Z,14.43
2023-01-20T05:12:41.159Z,14.20
2023-01-20T05:15:08.825Z,15.50
2023-01-20T05:17:36.320Z,16.70
2023-01-20T05:20:04.315Z,14.65
2023-01-20T05:22:33.199Z,15.52
2023-01-20T05:25:00.851Z,14.35
2023-01-20T05:27:28.316Z,13.93
2023-01-20T05:29:55.771Z,15.15
2023-01-20T05:32:23.332Z,15.98
2023-01-20T05:34:50.955Z,13.73
2023-01-20T05:37:18.908Z,14.75
2023-01-20T05:39:46.500Z,17.95
2023-01-20T05:42:14.208Z,15.30
2023-01-20T05:44:41.753Z,13.40
2023-01-20T05:47:09.249Z,18.48
2023-01-20T05:49:36.732Z,20.98
2023-01-20T05:52:04.282Z,17.40
2023-01-20T05:54:31.739Z,15.77
2023-01-20T05:56:59.523Z,18.10
2023-01-20T05:59:27.184Z,15.80
2023-01-20T06:01:54.644Z,14.77
2023-01-20T06:04:22.159Z,17.60
2023-01-20T06:06:49.671Z,20.13
2023-01-20T06:09:17.123Z,17.20
2023-01-20T06:11:44.616Z,18.90
2023-01-20T06:14:12.262Z,18.98
2023-01-20T06:16:39.779Z,18.25
2023-01-20T06:19:07.315Z,15.02
2023-01-20T06:21:34.955Z,17.05
2023-01-20T06:24:02.461Z,15.98
2023-01-20T06:26:29.942Z,15.32
2023-01-20T06:29:01.400Z,14.90
2023-01-20T06:31:29.184Z,14.93
2023-01-20T06:33:56.741Z,14.00
2023-01-20T06:36:24.499Z,13.85
2023-01-20T06:38:52.973Z,15.13
2023-01-20T06:41:21.199Z,17.38
2023-01-20T06:43:50.182Z,16.27
2023-01-20T06:46:17.870Z,15.57
2023-01-20T06:48:45.925Z,18.27
2023-01-20T06:51:15.217Z,15.50
2023-01-20T06:53:43.037Z,15.10
2023-01-20T06:56:11.889Z,13.63
2023-01-20T06:58:43.144Z,14.18
2023-01-20T07:03:38.323Z,15.90
2023-01-20T07:06:12.979Z,16.80
2023-01-20T07:08:40.476Z,16.23
2023-01-20T07:11:08.034Z,14.93
2023-01-20T07:13:35.575Z,16.88
2023-01-20T07:16:03.343Z,16.65
2023-01-20T07:18:30.858Z,16.00
2023-01-20T07:20:58.457Z,13.98
2023-01-20T07:23:25.922Z,14.98
2023-01-20T07:26:02.807Z,14.10
2023-01-20T07:28:30.809Z,15.90
2023-01-20T07:31:03.697Z,15.55
2023-01-20T07:33:31.821Z,17.90
2023-01-20T07:35:59.288Z,14.55
2023-01-20T07:38:26.808Z,17.27
2023-01-20T07:40:57.431Z,17.35
2023-01-20T07:43:25.137Z,16.75
2023-01-20T07:45:56.371Z,16.77
2023-01-20T07:51:01.827Z,16.25
2023-01-20T07:53:29.933Z,13.63
2023-01-20T07:55:57.542Z,15.82
2023-01-20T07:58:25.124Z,17.73
2023-01-20T08:00:52.659Z,15.05
2023-01-20T08:03:20.182Z,15.73
2023-01-20T08:05:47.657Z,13.73
2023-01-20T08:08:15.180Z,14.82
2023-01-20T08:10:42.701Z,16.75
2023-01-20T08:13:11.218Z,14.40
2023-01-20T08:15:38.702Z,14.63
2023-01-20T08:18:06.191Z,15.93
2023-01-20T08:20:33.875Z,15.75
2023-01-20T08:23:01.479Z,15.07
2023-01-20T08:25:28.930Z,14.07
2023-01-20T08:27:56.403Z,14.32
2023-01-20T08:30:23.925Z,16.17
2023-01-20T08:32:51.594Z,15.85
2023-01-20T08:35:19.519Z,15.88
2023-01-20T08:37:47.111Z,15.38
2023-01-20T08:40:14.699Z,16.70
2023-01-20T08:42:42.193Z,19.20
2023-01-20T08:45:10.211Z,16.42
2023-01-20T08:47:38.572Z,14.73
2023-01-20T08:50:07.487Z,16.10
2023-01-20T08:52:35.315Z,18.55
2023-01-20T08:55:02.822Z,16.33
2023-01-20T08:57:30.273Z,14.30
2023-01-20T08:59:57.739Z,16.63
2023-01-20T09:02:25.292Z,12.43
2023-01-20T09:04:52.916Z,14.23
2023-01-20T09:07:20.434Z,15.27
2023-01-20T09:09:47.935Z,15.15
2023-01-20T09:12:15.340Z,14.85
2023-01-20T09:14:42.877Z,17.58
2023-01-20T09:17:10.345Z,14.68
2023-01-20T09:19:37.800Z,14.20
2023-01-20T09:22:05.281Z,16.55
2023-01-20T09:24:32.971Z,15.57
2023-01-20T09:27:00.413Z,17.23
2023-01-20T09:29:27.941Z,14.82
2023-01-20T09:31:59.174Z,13.60
2023-01-20T09:36:58.597Z,15.65
2023-01-20T09:39:44.855Z,15.07
2023-01-20T09:42:42.065Z,15.57
2023-01-20T09:45:25.127Z,17.55
2023-01-20T09:47:54.899Z,15.98
2023-01-20T09:50:44.008Z,16.02
2023-01-20T09:53:17.317Z,16.95
2023-01-20T09:55:50.835Z,19.13
2023-01-20T09:58:18.311Z,17.55
2023-01-20T10:00:48.405Z,15.43
2023-01-20T10:03:22.896Z,16.83
2023-01-20T10:05:51.490Z,17.23
2023-01-20T10:08:59.655Z,17.80
2023-01-20T10:11:38.024Z,16.95
2023-01-20T10:14:21.813Z,16.48
2023-01-20T10:16:57.282Z,16.17
2023-01-20T10:19:36.633Z,17.42
2023-01-20T10:22:18.682Z,20.77
2023-01-20T10:24:52.907Z,16.85
2023-01-20T10:27:20.380Z,18.65
2023-01-20T10:29:54.941Z,15.65
2023-01-20T10:32:25.654Z,17.02
2023-01-20T10:34:56.729Z,17.02
2023-01-20T10:40:01.799Z,15.75
2023-01-20T10:42:29.504Z,18.83
2023-01-20T10:44:57.020Z,17.50
2023-01-20T10:47:26.042Z,17.48
2023-01-20T10:50:07.199Z,19.50
2023-01-20T10:52:53.621Z,16.38
2023-01-20T10:55:37.717Z,17.20
2023-01-20T10:58:37.605Z,17.05
2023-01-20T11:01:09.258Z,18.00
2023-01-20T11:03:38.324Z,16.13
2023-01-20T11:06:06.979Z,16.83
2023-01-20T11:08:34.858Z,18.92
2023-01-20T11:11:12.390Z,16.80
2023-01-20T11:13:39.905Z,17.27
2023-01-20T11:16:13.674Z,21.45
2023-01-20T11:18:41.215Z,16.58
2023-01-20T11:21:13.393Z,18.83
2023-01-20T11:23:42.539Z,18.10
2023-01-20T11:26:19.377Z,21.60
2023-01-20T11:29:10.249Z,21.33
2023-01-20T11:31:42.902Z,17.35
2023-01-20T11:34:30.933Z,26.17
2023-01-20T11:37:07.547Z,17.23
2023-01-20T11:39:36.701Z,18.45
2023-01-20T11:42:17.433Z,19.65
2023-01-20T11:44:47.389Z,17.80
2023-01-20T11:47:26.226Z,18.38
2023-01-20T11:50:05.577Z,15.85
2023-01-20T11:52:33.790Z,18.95
2023-01-20T11:55:13.191Z,17.08
2023-01-20T11:57:44.576Z,15.77
2023-01-20T12:00:30.944Z,15.32
2023-01-20T12:03:00.654Z,13.82
2023-01-20T12:05:36.021Z,15.88
2023-01-20T12:08:04.949Z,14.35
2023-01-20T12:10:36.328Z,17.70
2023-01-20T12:13:06.483Z,15.82
2023-01-20T12:15:35.376Z,14.90
2023-01-20T12:18:11.957Z,12.25
2023-01-20T12:20:55.507Z,15.00
2023-01-20T12:23:23.413Z,14.48
2023-01-20T12:25:58.384Z,12.52
2023-01-20T12:28:25.836Z,11.30
2023-01-20T12:30:53.324Z,12.68
2023-01-20T12:33:22.465Z,9.93
2023-01-20T12:36:13.354Z,9.73
2023-01-20T12:38:44.030Z,10.35
2023-01-20T12:41:17.843Z,8.93
2023-01-20T12:43:55.440Z,14.15
2023-01-20T12:46:29.847Z,10.82
2023-01-20T12:49:11.544Z,11.13
2023-01-20T12:51:44.016Z,9.68
2023-01-20T12:54:46.937Z,10.50
2023-01-20T12:57:18.725Z,9.57
2023-01-20T12:59:46.219Z,10.30
2023-01-20T13:02:18.483Z,9.88
2023-01-20T13:04:48.883Z,9.40
2023-01-20T13:07:22.219Z,9.53
2023-01-20T13:09:55.712Z,11.50
2023-01-20T13:12:23.159Z,10.70
2023-01-20T13:14:59.306Z,10.57
2023-01-20T13:17:38.562Z,10.00
2023-01-20T13:20:12.237Z,8.93
2023-01-20T13:22:39.943Z,8.75
2023-01-20T13:25:14.449Z,10.07
2023-01-20T13:27:42.329Z,14.73
2023-01-20T13:30:29.933Z,11.23
2023-01-20T13:33:05.526Z,9.13
2023-01-20T13:35:35.324Z,8.60
2023-01-20T13:38:03.223Z,8.27
2023-01-20T13:40:36.796Z,9.98
2023-01-20T13:43:04.825Z,8.70
2023-01-20T13:45:32.263Z,11.32
2023-01-20T13:48:22.045Z,6.40
2023-01-20T13:50:50.289Z,6.45
2023-01-20T13:53:20.951Z,6.60
2023-01-20T13:55:48.445Z,5.68
2023-01-20T13:58:15.888Z,8.00
2023-01-20T14:00:43.841Z,7.43
2023-01-20T14:03:20.467Z,9.43
2023-01-20T14:05:52.092Z,7.32
2023-01-20T14:08:20.626Z,5.72
2023-01-20T14:10:48.372Z,6.65
2023-01-20T14:13:20.392Z,7.63
2023-01-20T14:15:57.129Z,7.18
2023-01-20T14:18:26.409Z,7.05
2023-01-20T14:21:03.642Z,6.53
2023-01-20T14:23:31.490Z,18.63
2023-01-20T14:26:12.402Z,43.78
2023-01-20T14:28:47.493Z,23.45
2023-01-20T14:31:16.515Z,13.77
2023-01-20T14:34:01.418Z,9.65
2023-01-20T14:36:33.121Z,8.18
2023-01-20T14:39:03.930Z,8.15
2023-01-20T14:43:59.839Z,8.50
2023-01-20T14:46:28.646Z,7.30
2023-01-20T14:48:56.476Z,8.70
2023-01-20T14:51:24.137Z,7.28
2023-01-20T14:54:30.986Z,8.98
2023-01-20T14:56:59.535Z,7.50
2023-01-20T14:59:27.480Z,9.85
2023-01-20T15:01:56.019Z,8.23
2023-01-20T15:04:23.839Z,5.90
2023-01-20T15:06:52.242Z,7.00
2023-01-20T15:09:30.473Z,5.78
2023-01-20T15:12:16.760Z,4.95
2023-01-20T15:14:56.863Z,6.07
2023-01-20T15:17:24.377Z,5.63
2023-01-20T15:19:52.694Z,6.18
2023-01-20T15:22:22.078Z,6.85
2023-01-20T15:24:50.451Z,5.40
2023-01-20T15:27:22.863Z,5.03
2023-01-20T15:30:05.117Z,6.70
2023-01-20T15:32:32.571Z,6.18
2023-01-20T15:35:00.138Z,7.60
2023-01-20T15:37:27.627Z,11.27
2023-01-20T15:39:55.118Z,10.20
2023-01-20T15:42:24.213Z,15.23
2023-01-20T15:44:51.744Z,13.10
2023-01-20T15:47:21.109Z,17.55
2023-01-20T15:49:48.630Z,13.88
2023-01-20T15:52:16.269Z,17.80
2023-01-20T15:54:43.699Z,10.45
2023-01-20T15:57:15.008Z,10.65
2023-01-20T15:59:46.233Z,12.77
2023-01-20T16:04:41.044Z,30.10
2023-01-20T16:07:11.319Z,36.15
2023-01-20T16:09:39.009Z,12.10
2023-01-20T16:12:06.586Z,9.90
2023-01-20T16:14:34.047Z,11.20
2023-01-20T16:17:01.563Z,12.05
2023-01-20T16:19:29.033Z,12.85
2023-01-20T16:21:56.481Z,9.82
2023-01-20T16:24:24.005Z,11.18
2023-01-20T16:26:51.455Z,9.88
2023-01-20T16:29:18.887Z,11.27
2023-01-20T16:31:46.346Z,12.45
2023-01-20T16:34:13.802Z,11.10
2023-01-20T16:36:41.351Z,12.35
2023-01-20T16:39:10.104Z,12.95
2023-01-20T16:41:37.894Z,14.93
2023-01-20T16:44:05.542Z,15.18
2023-01-20T16:46:33.303Z,13.75
2023-01-20T16:49:01.942Z,16.88
2023-01-20T16:51:30.486Z,17.55
2023-01-20T16:53:58.442Z,13.57
2023-01-20T16:56:28.369Z,14.68
2023-01-20T16:59:01.291Z,17.27
2023-01-20T17:01:29.539Z,16.27
2023-01-20T17:04:00.968Z,14.32
2023-01-20T17:06:29.944Z,15.25
2023-01-20T17:08:58.667Z,13.82
2023-01-20T17:11:33.278Z,13.55
2023-01-20T17:14:02.258Z,15.05
2023-01-20T17:16:29.774Z,20.95
2023-01-20T17:18:58.471Z,16.80
2023-01-20T17:21:27.001Z,15.32
2023-01-20T17:23:55.507Z,14.82
2023-01-20T17:26:23.353Z,14.25
2023-01-20T17:28:54.657Z,14.48
2023-01-20T17:33:50.334Z,16.17
2023-01-20T17:36:18.321Z,18.40
2023-01-20T17:38:46.238Z,19.95
2023-01-20T17:41:14.459Z,17.55
2023-01-20T17:43:44.013Z,15.98
2023-01-20T17:46:12.831Z,14.82
2023-01-20T17:48:40.307Z,14.32
2023-01-20T17:51:11.964Z,14.02
2023-01-20T17:53:39.711Z,15.75
2023-01-20T17:56:12.815Z,14.27
2023-01-20T17:58:41.287Z,12.98
2023-01-20T18:01:14.753Z,13.82
2023-01-20T18:03:43.199Z,14.85
2023-01-20T18:06:11.738Z,17.50
2023-01-20T18:08:39.713Z,22.33
2023-01-20T18:11:11.446Z,26.58
2023-01-20T18:13:39.238Z,26.67
2023-01-20T18:16:07.452Z,27.70
2023-01-20T18:18:34.975Z,21.20
2023-01-20T18:21:21.718Z,15.32
2023-01-20T18:23:49.985Z,15.23
2023-01-20T18:26:18.282Z,17.27
2023-01-20T18:28:47.819Z,16.42
2023-01-20T18:31:16.863Z,17.30
2023-01-20T18:33:47.371Z,17.77
2023-01-20T18:36:17.649Z,17.27
2023-01-20T18:38:49.871Z,18.20
2023-01-20T18:41:17.794Z,18.15
2023-01-20T18:43:45.897Z,17.00
2023-01-20T18:46:13.659Z,18.42
2023-01-20T18:48:41.764Z,15.85
2023-01-20T18:51:14.780Z,17.58
2023-01-20T18:53:43.398Z,18.33
2023-01-20T18:56:12.323Z,16.70
2023-01-20T18:58:42.824Z,16.05
2023-01-20T19:01:11.826Z,16.73
2023-01-20T19:03:40.026Z,15.05
2023-01-20T19:06:10.779Z,15.77
2023-01-20T19:08:39.080Z,16.50
2023-01-20T19:11:08.871Z,15.45
2023-01-20T19:13:36.389Z,16.77
2023-01-20T19:16:05.149Z,17.13
2023-01-20T19:18:32.782Z,17.30
2023-01-20T19:21:07.260Z,18.73
2023-01-20T19:23:34.831Z,19.77
2023-01-20T19:26:03.785Z,17.02
2023-01-20T19:28:31.296Z,18.58
2023-01-20T19:31:08.576Z,17.08
2023-01-20T19:33:36.679Z,17.42
2023-01-20T19:36:05.644Z,17.85
2023-01-20T19:38:34.122Z,18.25
2023-01-20T19:41:05.613Z,18.52
2023-01-20T19:43:33.383Z,20.38
2023-01-20T19:46:05.234Z,18.00
2023-01-20T19:48:32.748Z,21.35
2023-01-20T19:51:04.229Z,20.13
2023-01-20T19:53:32.014Z,19.65
2023-01-20T19:56:09.715Z,20.98
2023-01-20T19:58:37.735Z,21.60
2023-01-20T20:01:09.264Z,20.50
2023-01-20T20:03:37.287Z,20.48
2023-01-20T20:06:05.326Z,19.48
2023-01-20T20:08:33.504Z,19.65
2023-01-20T20:11:01.047Z,19.92
2023-01-20T20:13:28.700Z,20.50
2023-01-20T20:16:05.563Z,19.92
2023-01-20T20:18:33.244Z,21.30
2023-01-20T20:21:00.700Z,20.13
2023-01-20T20:23:29.753Z,20.13
2023-01-20T20:25:57.327Z,18.17
2023-01-20T20:28:25.339Z,20.08
2023-01-20T20:30:55.394Z,20.13
2023-01-20T20:33:23.601Z,18.50
2023-01-20T20:35:51.177Z,21.45
2023-01-20T20:38:18.697Z,19.63
2023-01-20T20:40:46.314Z,17.00
2023-01-20T20:43:13.823Z,18.08
2023-01-20T20:45:41.227Z,17.30
2023-01-20T20:48:10.102Z,17.20
2023-01-20T20:50:37.590Z,15.52
2023-01-20T20:53:05.081Z,16.70
2023-01-20T20:55:32.508Z,17.92
2023-01-20T20:57:59.929Z,17.42
2023-01-20T21:00:28.150Z,16.30
2023-01-20T21:02:56.883Z,16.88
2023-01-20T21:05:24.478Z,16.95
2023-01-20T21:07:51.936Z,17.38
2023-01-20T21:10:21.071Z,20.02
2023-01-20T21:12:48.612Z,16.95
2023-01-20T21:15:17.814Z,17.60
2023-01-20T21:17:45.344Z,18.33
2023-01-20T21:20:13.129Z,16.70
2023-01-20T21:22:40.716Z,17.45
2023-01-20T21:25:08.584Z,17.10
2023-01-20T21:27:36.326Z,17.35
2023-01-20T21:30:03.928Z,16.42
2023-01-20T21:32:31.527Z,15.45
2023-01-20T21:35:01.741Z,17.58
2023-01-20T21:37:29.224Z,17.33
2023-01-20T21:39:56.629Z,18.05
2023-01-20T21:42:24.103Z,17.67
2023-01-20T21:44:51.589Z,17.58
2023-01-20T21:47:19.076Z,22.90
2023-01-20T21:50:05.270Z,18.13
2023-01-20T21:52:42.322Z,17.58
2023-01-20T21:55:11.574Z,17.08
2023-01-20T21:57:39.082Z,18.23
2023-01-20T22:00:08.583Z,17.73
2023-01-20T22:02:45.625Z,18.80
2023-01-20T22:05:13.865Z,16.23
2023-01-20T22:07:41.336Z,17.60
2023-01-20T22:10:09.323Z,18.25
2023-01-20T22:12:37.291Z,20.30
2023-01-20T22:15:05.072Z,15.65
2023-01-20T22:17:32.593Z,19.67
2023-01-20T22:20:00.144Z,17.63
2023-01-20T22:22:27.617Z,17.40
2023-01-20T22:24:55.126Z,14.15
2023-01-20T22:27:22.557Z,15.20
2023-01-20T22:29:50.037Z,16.10
2023-01-20T22:32:17.467Z,14.95
2023-01-20T22:34:44.960Z,13.52
2023-01-20T22:37:12.400Z,13.98
2023-01-20T22:39:39.814Z,13.35
2023-01-20T22:42:08.003Z,13.82
2023-01-20T22:44:35.447Z,11.23
2023-01-20T22:47:05.649Z,11.18
2023-01-20T22:49:33.150Z,9.70
2023-01-20T22:52:00.644Z,11.30
2023-01-20T22:54:28.113Z,11.02
2023-01-20T22:56:55.577Z,11.73
2023-01-20T22:59:23.087Z,10.00
2023-01-20T23:01:50.986Z,12.18
2023-01-20T23:04:18.553Z,12.35
2023-01-20T23:06:46.026Z,13.15
2023-01-20T23:09:14.440Z,15.23
2023-01-20T23:11:42.123Z,15.52
2023-01-20T23:14:12.692Z,12.98
2023-01-20T23:16:41.039Z,16.63
2023-01-20T23:19:08.591Z,15.75
2023-01-20T23:21:36.147Z,15.52
2023-01-20T23:24:03.659Z,14.82
2023-01-20T23:26:31.307Z,15.43
2023-01-20T23:28:59.024Z,16.83
2023-01-20T23:31:28.546Z,14.95
2023-01-20T23:33:56.137Z,16.38
2023-01-20T23:36:25.127Z,17.17
2023-01-20T23:38:56.603Z,17.98
2023-01-20T23:41:24.565Z,14.98
2023-01-20T23:43:52.161Z,13.88
2023-01-20T23:46:19.746Z,15.18
2023-01-20T23:48:47.581Z,16.33
2023-01-20T23:51:15.575Z,15.30
2023-01-20T23:53:43.314Z,18.20
2023-01-20T23:56:15.463Z,23.05
2023-01-20T23:58:43.069Z,19.58
